sensor_id;sensor_type;location;lat;lon;timestamp;P1;durP1;ratioP1;P2;durP2;ratioP2
70866;SDS011;58487;53.474;49.470;2022-11-04T00:01:45;8.90;;;3.50;;
70866;SDS011;58487;53.474;49.470;2022-11-04T00:04:13;9.65;;;3.60;;
70866;SDS011;58487;53.474;49.470;2022-11-04T00:06:40;9.35;;;3.42;;
70866;SDS011;58487;53.474;49.470;2022-11-04T00:09:08;8.20;;;3.47;;
70866;SDS011;58487;53.474;49.470;2022-11-04T00:11:35;9.15;;;3.40;;
70866;SDS011;58487;53.474;49.470;2022-11-04T00:14:20;7.70;;;3.28;;
70866;SDS011;58487;53.474;49.470;2022-11-04T00:16:46;7.65;;;3.42;;
70866;SDS011;58487;53.474;49.470;2022-11-04T00:19:31;12.15;;;3.67;;
70866;SDS011;58487;53.474;49.470;2022-11-04T00:22:17;7.00;;;3.17;;
70866;SDS011;58487;53.474;49.470;2022-11-04T00:25:03;7.85;;;3.00;;
70866;SDS011;58487;53.474;49.470;2022-11-04T00:27:48;8.85;;;3.35;;
70866;SDS011;58487;53.474;49.470;2022-11-04T00:30:32;8.05;;;3.28;;
70866;SDS011;58487;53.474;49.470;2022-11-04T00:32:58;8.68;;;3.33;;
70866;SDS011;58487;53.474;49.470;2022-11-04T00:35:49;7.73;;;3.37;;
70866;SDS011;58487;53.474;49.470;2022-11-04T00:38:16;8.23;;;3.17;;
70866;SDS011;58487;53.474;49.470;2022-11-04T00:40:42;7.78;;;3.47;;
70866;SDS011;58487;53.474;49.470;2022-11-04T00:43:09;8.13;;;3.20;;
70866;SDS011;58487;53.474;49.470;2022-11-04T00:45:35;10.43;;;3.85;;
70866;SDS011;58487;53.474;49.470;2022-11-04T00:48:02;8.30;;;3.73;;
70866;SDS011;58487;53.474;49.470;2022-11-04T00:50:28;8.57;;;3.72;;
70866;SDS011;58487;53.474;49.470;2022-11-04T00:53:01;8.45;;;3.60;;
70866;SDS011;58487;53.474;49.470;2022-11-04T00:55:28;8.15;;;3.45;;
70866;SDS011;58487;53.474;49.470;2022-11-04T00:57:54;9.05;;;3.58;;
70866;SDS011;58487;53.474;49.470;2022-11-04T01:00:22;8.87;;;3.47;;
70866;SDS011;58487;53.474;49.470;2022-11-04T01:02:48;10.02;;;3.90;;
70866;SDS011;58487;53.474;49.470;2022-11-04T01:05:14;8.55;;;3.78;;
70866;SDS011;58487;53.474;49.470;2022-11-04T01:07:40;7.82;;;3.22;;
70866;SDS011;58487;53.474;49.470;2022-11-04T01:10:06;9.20;;;3.58;;
70866;SDS011;58487;53.474;49.470;2022-11-04T01:12:33;11.63;;;3.47;;
70866;SDS011;58487;53.474;49.470;2022-11-04T01:14:59;8.57;;;3.70;;
70866;SDS011;58487;53.474;49.470;2022-11-04T01:17:25;8.02;;;3.47;;
70866;SDS011;58487;53.474;49.470;2022-11-04T01:19:51;8.40;;;3.92;;
70866;SDS011;58487;53.474;49.470;2022-11-04T01:22:17;8.50;;;3.28;;
70866;SDS011;58487;53.474;49.470;2022-11-04T01:24:43;6.87;;;2.90;;
70866;SDS011;58487;53.474;49.470;2022-11-04T01:27:09;7.20;;;3.40;;
70866;SDS011;58487;53.474;49.470;2022-11-04T01:29:35;8.05;;;3.22;;
70866;SDS011;58487;53.474;49.470;2022-11-04T01:32:01;7.07;;;3.17;;
70866;SDS011;58487;53.474;49.470;2022-11-04T01:34:28;7.07;;;3.40;;
70866;SDS011;58487;53.474;49.470;2022-11-04T01:36:56;7.53;;;3.37;;
70866;SDS011;58487;53.474;49.470;2022-11-04T01:39:22;7.70;;;3.72;;
70866;SDS011;58487;53.474;49.470;2022-11-04T01:41:48;7.72;;;3.42;;
70866;SDS011;58487;53.474;49.470;2022-11-04T01:47:18;6.85;;;3.22;;
70866;SDS011;58487;53.474;49.470;2022-11-04T01:49:49;7.33;;;3.37;;
70866;SDS011;58487;53.474;49.470;2022-11-04T01:52:30;7.00;;;3.20;;
70866;SDS011;58487;53.474;49.470;2022-11-04T01:55:02;8.68;;;2.78;;
70866;SDS011;58487;53.474;49.470;2022-11-04T01:57:41;6.40;;;3.00;;
70866;SDS011;58487;53.474;49.470;2022-11-04T02:00:12;7.82;;;3.17;;
70866;SDS011;58487;53.474;49.470;2022-11-04T02:02:48;6.53;;;2.67;;
70866;SDS011;58487;53.474;49.470;2022-11-04T02:05:15;5.82;;;2.70;;
70866;SDS011;58487;53.474;49.470;2022-11-04T02:07:42;9.45;;;3.33;;
70866;SDS011;58487;53.474;49.470;2022-11-04T02:10:08;7.68;;;3.10;;
70866;SDS011;58487;53.474;49.470;2022-11-04T02:12:35;7.40;;;3.00;;
70866;SDS011;58487;53.474;49.470;2022-11-04T02:15:17;7.17;;;3.30;;
70866;SDS011;58487;53.474;49.470;2022-11-04T02:18:04;6.93;;;3.00;;
70866;SDS011;58487;53.474;49.470;2022-11-04T02:31:52;7.75;;;3.10;;
70866;SDS011;58487;53.474;49.470;2022-11-04T02:39:54;8.38;;;3.35;;
70866;SDS011;58487;53.474;49.470;2022-11-04T02:42:44;8.30;;;3.40;;
70866;SDS011;58487;53.474;49.470;2022-11-04T02:45:21;7.70;;;3.13;;
70866;SDS011;58487;53.474;49.470;2022-11-04T02:48:18;10.30;;;3.33;;
70866;SDS011;58487;53.474;49.470;2022-11-04T02:55:56;9.17;;;4.00;;
70866;SDS011;58487;53.474;49.470;2022-11-04T02:58:29;13.05;;;3.80;;
70866;SDS011;58487;53.474;49.470;2022-11-04T03:01:01;10.00;;;4.43;;
70866;SDS011;58487;53.474;49.470;2022-11-04T03:03:39;11.02;;;4.05;;
70866;SDS011;58487;53.474;49.470;2022-11-04T03:06:10;9.38;;;4.05;;
70866;SDS011;58487;53.474;49.470;2022-11-04T03:08:45;9.83;;;3.83;;
70866;SDS011;58487;53.474;49.470;2022-11-04T03:11:14;10.13;;;3.60;;
70866;SDS011;58487;53.474;49.470;2022-11-04T03:16:18;7.32;;;3.40;;
70866;SDS011;58487;53.474;49.470;2022-11-04T03:19:12;7.72;;;3.53;;
70866;SDS011;58487;53.474;49.470;2022-11-04T03:21:58;7.23;;;3.00;;
70866;SDS011;58487;53.474;49.470;2022-11-04T03:24:28;6.72;;;3.10;;
70866;SDS011;58487;53.474;49.470;2022-11-04T03:26:59;8.38;;;3.28;;
70866;SDS011;58487;53.474;49.470;2022-11-04T03:31:59;8.00;;;3.00;;
70866;SDS011;58487;53.474;49.470;2022-11-04T03:34:47;7.23;;;3.47;;
70866;SDS011;58487;53.474;49.470;2022-11-04T03:37:13;5.82;;;2.70;;
70866;SDS011;58487;53.474;49.470;2022-11-04T03:39:39;6.68;;;3.13;;
70866;SDS011;58487;53.474;49.470;2022-11-04T03:42:07;6.75;;;2.95;;
70866;SDS011;58487;53.474;49.470;2022-11-04T03:44:51;5.97;;;2.90;;
70866;SDS011;58487;53.474;49.470;2022-11-04T03:47:22;7.50;;;3.00;;
70866;SDS011;58487;53.474;49.470;2022-11-04T03:50:12;7.00;;;2.97;;
70866;SDS011;58487;53.474;49.470;2022-11-04T03:52:39;7.40;;;3.65;;
70866;SDS011;58487;53.474;49.470;2022-11-04T03:55:05;6.70;;;3.08;;
70866;SDS011;58487;53.474;49.470;2022-11-04T04:00:13;7.13;;;3.20;;
70866;SDS011;58487;53.474;49.470;2022-11-04T04:05:28;7.07;;;3.10;;
70866;SDS011;58487;53.474;49.470;2022-11-04T04:10:27;7.45;;;3.28;;
70866;SDS011;58487;53.474;49.470;2022-11-04T04:15:58;6.50;;;3.20;;
70866;SDS011;58487;53.474;49.470;2022-11-04T04:18:30;10.23;;;3.50;;
70866;SDS011;58487;53.474;49.470;2022-11-04T04:21:08;7.47;;;3.55;;
70866;SDS011;58487;53.474;49.470;2022-11-04T04:23:40;7.50;;;3.45;;
70866;SDS011;58487;53.474;49.470;2022-11-04T04:26:26;8.43;;;3.53;;
70866;SDS011;58487;53.474;49.470;2022-11-04T04:29:13;8.20;;;3.60;;
70866;SDS011;58487;53.474;49.470;2022-11-04T04:31:40;10.38;;;3.17;;
70866;SDS011;58487;53.474;49.470;2022-11-04T04:34:19;7.50;;;3.03;;
70866;SDS011;58487;53.474;49.470;2022-11-04T04:37:30;9.55;;;3.92;;
70866;SDS011;58487;53.474;49.470;2022-11-04T04:39:46;10.27;;;3.93;;
70866;SDS011;58487;53.474;49.470;2022-11-04T04:42:35;7.47;;;3.45;;
70866;SDS011;58487;53.474;49.470;2022-11-04T04:48:00;7.90;;;3.33;;
70866;SDS011;58487;53.474;49.470;2022-11-04T04:50:27;7.57;;;3.60;;
70866;SDS011;58487;53.474;49.470;2022-11-04T04:52:58;9.77;;;3.87;;
70866;SDS011;58487;53.474;49.470;2022-11-04T04:55:25;8.65;;;3.83;;
70866;SDS011;58487;53.474;49.470;2022-11-04T04:57:51;8.35;;;3.60;;
70866;SDS011;58487;53.474;49.470;2022-11-04T05:00:18;9.55;;;3.78;;
70866;SDS011;58487;53.474;49.470;2022-11-04T05:02:45;7.30;;;3.33;;
70866;SDS011;58487;53.474;49.470;2022-11-04T05:05:13;7.17;;;3.33;;
70866;SDS011;58487;53.474;49.470;2022-11-04T05:07:39;7.70;;;3.80;;
70866;SDS011;58487;53.474;49.470;2022-11-04T05:10:06;8.57;;;3.55;;
70866;SDS011;58487;53.474;49.470;2022-11-04T05:12:35;7.40;;;3.70;;
70866;SDS011;58487;53.474;49.470;2022-11-04T05:15:21;6.68;;;2.88;;
70866;SDS011;58487;53.474;49.470;2022-11-04T05:17:47;7.80;;;3.63;;
70866;SDS011;58487;53.474;49.470;2022-11-04T05:20:17;6.38;;;3.13;;
70866;SDS011;58487;53.474;49.470;2022-11-04T05:22:43;7.85;;;3.35;;
70866;SDS011;58487;53.474;49.470;2022-11-04T05:25:09;7.63;;;3.30;;
70866;SDS011;58487;53.474;49.470;2022-11-04T05:27:35;12.98;;;3.75;;
70866;SDS011;58487;53.474;49.470;2022-11-04T05:30:02;8.37;;;3.60;;
70866;SDS011;58487;53.474;49.470;2022-11-04T05:32:29;7.97;;;3.60;;
70866;SDS011;58487;53.474;49.470;2022-11-04T05:34:58;8.48;;;4.30;;
70866;SDS011;58487;53.474;49.470;2022-11-04T05:37:24;9.13;;;3.78;;
70866;SDS011;58487;53.474;49.470;2022-11-04T05:39:51;9.20;;;4.50;;
70866;SDS011;58487;53.474;49.470;2022-11-04T05:42:17;8.23;;;3.97;;
70866;SDS011;58487;53.474;49.470;2022-11-04T05:44:43;8.57;;;3.95;;
70866;SDS011;58487;53.474;49.470;2022-11-04T05:47:09;9.70;;;4.70;;
70866;SDS011;58487;53.474;49.470;2022-11-04T05:49:35;8.38;;;3.60;;
70866;SDS011;58487;53.474;49.470;2022-11-04T05:52:01;10.57;;;4.75;;
70866;SDS011;58487;53.474;49.470;2022-11-04T05:54:27;9.57;;;4.47;;
70866;SDS011;58487;53.474;49.470;2022-11-04T05:56:54;9.77;;;4.10;;
70866;SDS011;58487;53.474;49.470;2022-11-04T05:59:20;9.30;;;4.00;;
70866;SDS011;58487;53.474;49.470;2022-11-04T06:01:46;10.07;;;4.43;;
70866;SDS011;58487;53.474;49.470;2022-11-04T06:04:15;8.07;;;3.72;;
70866;SDS011;58487;53.474;49.470;2022-11-04T06:06:42;8.67;;;3.73;;
70866;SDS011;58487;53.474;49.470;2022-11-04T06:09:09;9.13;;;4.28;;
70866;SDS011;58487;53.474;49.470;2022-11-04T06:11:36;9.73;;;4.07;;
70866;SDS011;58487;53.474;49.470;2022-11-04T06:14:03;9.48;;;4.50;;
70866;SDS011;58487;53.474;49.470;2022-11-04T06:16:30;11.57;;;4.85;;
70866;SDS011;58487;53.474;49.470;2022-11-04T06:18:56;10.13;;;4.47;;
70866;SDS011;58487;53.474;49.470;2022-11-04T06:21:26;9.77;;;4.50;;
70866;SDS011;58487;53.474;49.470;2022-11-04T06:23:57;9.68;;;4.38;;
70866;SDS011;58487;53.474;49.470;2022-11-04T06:26:24;10.82;;;4.00;;
70866;SDS011;58487;53.474;49.470;2022-11-04T06:28:52;8.93;;;4.07;;
70866;SDS011;58487;53.474;49.470;2022-11-04T06:31:18;9.27;;;4.50;;
70866;SDS011;58487;53.474;49.470;2022-11-04T06:33:45;10.32;;;4.40;;
70866;SDS011;58487;53.474;49.470;2022-11-04T06:36:13;8.73;;;4.28;;
70866;SDS011;58487;53.474;49.470;2022-11-04T06:38:40;9.68;;;4.07;;
70866;SDS011;58487;53.474;49.470;2022-11-04T06:41:09;9.38;;;4.13;;
70866;SDS011;58487;53.474;49.470;2022-11-04T06:43:37;7.37;;;3.27;;
70866;SDS011;58487;53.474;49.470;2022-11-04T06:46:03;9.45;;;3.80;;
70866;SDS011;58487;53.474;49.470;2022-11-04T06:48:29;7.80;;;3.90;;
70866;SDS011;58487;53.474;49.470;2022-11-04T06:50:57;7.78;;;3.67;;
70866;SDS011;58487;53.474;49.470;2022-11-04T06:53:24;6.88;;;3.25;;
70866;SDS011;58487;53.474;49.470;2022-11-04T06:55:51;7.93;;;3.97;;
70866;SDS011;58487;53.474;49.470;2022-11-04T06:58:18;8.13;;;3.10;;
70866;SDS011;58487;53.474;49.470;2022-11-04T07:00:49;7.60;;;3.53;;
70866;SDS011;58487;53.474;49.470;2022-11-04T07:03:17;8.48;;;3.60;;
70866;SDS011;58487;53.474;49.470;2022-11-04T07:05:43;6.30;;;3.13;;
70866;SDS011;58487;53.474;49.470;2022-11-04T07:08:09;9.07;;;3.93;;
70866;SDS011;58487;53.474;49.470;2022-11-04T07:10:35;7.97;;;3.92;;
70866;SDS011;58487;53.474;49.470;2022-11-04T07:13:01;8.52;;;3.97;;
70866;SDS011;58487;53.474;49.470;2022-11-04T07:15:27;7.88;;;3.15;;
70866;SDS011;58487;53.474;49.470;2022-11-04T07:17:53;7.15;;;2.78;;
70866;SDS011;58487;53.474;49.470;2022-11-04T07:20:19;7.13;;;3.63;;
70866;SDS011;58487;53.474;49.470;2022-11-04T07:22:45;7.28;;;3.20;;
70866;SDS011;58487;53.474;49.470;2022-11-04T07:25:11;8.57;;;3.70;;
70866;SDS011;58487;53.474;49.470;2022-11-04T07:27:37;9.63;;;3.78;;
70866;SDS011;58487;53.474;49.470;2022-11-04T07:30:04;12.10;;;3.75;;
70866;SDS011;58487;53.474;49.470;2022-11-04T07:32:31;7.83;;;3.37;;
70866;SDS011;58487;53.474;49.470;2022-11-04T07:34:57;8.45;;;4.15;;
70866;SDS011;58487;53.474;49.470;2022-11-04T07:37:24;7.72;;;3.60;;
70866;SDS011;58487;53.474;49.470;2022-11-04T07:39:50;7.95;;;3.40;;
70866;SDS011;58487;53.474;49.470;2022-11-04T07:42:16;8.68;;;3.83;;
70866;SDS011;58487;53.474;49.470;2022-11-04T07:44:42;8.40;;;3.93;;
70866;SDS011;58487;53.474;49.470;2022-11-04T07:47:08;9.05;;;4.25;;
70866;SDS011;58487;53.474;49.470;2022-11-04T07:49:34;8.13;;;3.30;;
70866;SDS011;58487;53.474;49.470;2022-11-04T07:52:00;6.82;;;3.17;;
70866;SDS011;58487;53.474;49.470;2022-11-04T07:54:26;7.55;;;3.55;;
70866;SDS011;58487;53.474;49.470;2022-11-04T07:56:53;9.47;;;3.43;;
70866;SDS011;58487;53.474;49.470;2022-11-04T07:59:19;8.60;;;3.67;;
70866;SDS011;58487;53.474;49.470;2022-11-04T08:01:45;10.43;;;3.33;;
70866;SDS011;58487;53.474;49.470;2022-11-04T08:04:11;8.02;;;3.25;;
70866;SDS011;58487;53.474;49.470;2022-11-04T08:06:37;7.90;;;3.22;;
70866;SDS011;58487;53.474;49.470;2022-11-04T08:09:04;9.03;;;3.70;;
70866;SDS011;58487;53.474;49.470;2022-11-04T08:11:30;9.23;;;3.55;;
70866;SDS011;58487;53.474;49.470;2022-11-04T08:13:56;8.00;;;3.80;;
70866;SDS011;58487;53.474;49.470;2022-11-04T08:16:23;8.35;;;3.60;;
70866;SDS011;58487;53.474;49.470;2022-11-04T08:18:50;6.85;;;2.95;;
70866;SDS011;58487;53.474;49.470;2022-11-04T08:21:20;7.03;;;3.30;;
70866;SDS011;58487;53.474;49.470;2022-11-04T08:23:46;7.78;;;3.78;;
70866;SDS011;58487;53.474;49.470;2022-11-04T08:26:16;8.02;;;3.17;;
70866;SDS011;58487;53.474;49.470;2022-11-04T08:28:43;7.43;;;3.58;;
70866;SDS011;58487;53.474;49.470;2022-11-04T08:31:10;8.68;;;3.70;;
70866;SDS011;58487;53.474;49.470;2022-11-04T08:33:40;9.67;;;3.50;;
70866;SDS011;58487;53.474;49.470;2022-11-04T08:36:07;7.15;;;3.58;;
70866;SDS011;58487;53.474;49.470;2022-11-04T08:38:36;7.32;;;3.20;;
70866;SDS011;58487;53.474;49.470;2022-11-04T08:41:03;7.22;;;3.42;;
70866;SDS011;58487;53.474;49.470;2022-11-04T08:43:32;8.05;;;3.40;;
70866;SDS011;58487;53.474;49.470;2022-11-04T08:45:59;7.23;;;3.40;;
70866;SDS011;58487;53.474;49.470;2022-11-04T08:48:26;7.38;;;3.58;;
70866;SDS011;58487;53.474;49.470;2022-11-04T08:50:53;9.73;;;3.60;;
70866;SDS011;58487;53.474;49.470;2022-11-04T08:53:21;8.77;;;3.60;;
70866;SDS011;58487;53.474;49.470;2022-11-04T08:55:47;7.25;;;3.35;;
70866;SDS011;58487;53.474;49.470;2022-11-04T08:58:13;6.43;;;3.07;;
70866;SDS011;58487;53.474;49.470;2022-11-04T09:00:39;6.05;;;2.85;;
70866;SDS011;58487;53.474;49.470;2022-11-04T09:03:05;5.97;;;2.35;;
70866;SDS011;58487;53.474;49.470;2022-11-04T09:05:33;5.78;;;2.55;;
70866;SDS011;58487;53.474;49.470;2022-11-04T09:08:05;6.47;;;2.60;;
70866;SDS011;58487;53.474;49.470;2022-11-04T09:10:31;6.87;;;2.90;;
70866;SDS011;58487;53.474;49.470;2022-11-04T09:12:57;6.90;;;2.53;;
70866;SDS011;58487;53.474;49.470;2022-11-04T09:15:23;5.85;;;2.58;;
70866;SDS011;58487;53.474;49.470;2022-11-04T09:17:50;6.20;;;2.92;;
70866;SDS011;58487;53.474;49.470;2022-11-04T09:20:16;6.93;;;2.80;;
70866;SDS011;58487;53.474;49.470;2022-11-04T09:22:42;6.10;;;2.83;;
70866;SDS011;58487;53.474;49.470;2022-11-04T09:25:08;6.40;;;2.80;;
70866;SDS011;58487;53.474;49.470;2022-11-04T09:27:34;7.35;;;2.92;;
70866;SDS011;58487;53.474;49.470;2022-11-04T09:30:00;6.75;;;2.88;;
70866;SDS011;58487;53.474;49.470;2022-11-04T09:32:26;6.05;;;2.58;;
70866;SDS011;58487;53.474;49.470;2022-11-04T09:34:52;6.43;;;2.60;;
70866;SDS011;58487;53.474;49.470;2022-11-04T09:37:18;6.93;;;2.30;;
70866;SDS011;58487;53.474;49.470;2022-11-04T09:39:44;6.03;;;2.65;;
70866;SDS011;58487;53.474;49.470;2022-11-04T09:45:09;6.50;;;2.53;;
70866;SDS011;58487;53.474;49.470;2022-11-04T09:47:38;3.43;;;1.30;;
70866;SDS011;58487;53.474;49.470;2022-11-04T09:54:09;5.07;;;2.10;;
70866;SDS011;58487;53.474;49.470;2022-11-04T09:56:19;5.15;;;1.77;;
70866;SDS011;58487;53.474;49.470;2022-11-04T09:58:48;4.72;;;2.10;;
70866;SDS011;58487;53.474;49.470;2022-11-04T10:01:26;5.87;;;2.40;;
70866;SDS011;58487;53.474;49.470;2022-11-04T10:04:20;14.45;;;2.70;;
70866;SDS011;58487;53.474;49.470;2022-11-04T10:12:21;7.30;;;2.85;;
70866;SDS011;58487;53.474;49.470;2022-11-04T10:28:40;8.03;;;2.53;;
70866;SDS011;58487;53.474;49.470;2022-11-04T10:31:12;6.50;;;2.40;;
70866;SDS011;58487;53.474;49.470;2022-11-04T10:33:42;6.60;;;2.65;;
70866;SDS011;58487;53.474;49.470;2022-11-04T10:36:12;6.30;;;2.38;;
70866;SDS011;58487;53.474;49.470;2022-11-04T10:38:41;8.00;;;2.90;;
70866;SDS011;58487;53.474;49.470;2022-11-04T10:43:50;7.63;;;3.08;;
70866;SDS011;58487;53.474;49.470;2022-11-04T10:46:25;6.72;;;3.00;;
70866;SDS011;58487;53.474;49.470;2022-11-04T10:49:04;8.65;;;3.10;;
70866;SDS011;58487;53.474;49.470;2022-11-04T10:51:39;7.60;;;2.90;;
70866;SDS011;58487;53.474;49.470;2022-11-04T10:54:09;8.13;;;3.43;;
70866;SDS011;58487;53.474;49.470;2022-11-04T10:56:49;8.52;;;3.47;;
70866;SDS011;58487;53.474;49.470;2022-11-04T10:59:28;7.40;;;3.38;;
70866;SDS011;58487;53.474;49.470;2022-11-04T11:02:11;8.10;;;3.60;;
70866;SDS011;58487;53.474;49.470;2022-11-04T11:04:37;7.93;;;3.72;;
70866;SDS011;58487;53.474;49.470;2022-11-04T11:07:10;7.73;;;3.67;;
70866;SDS011;58487;53.474;49.470;2022-11-04T11:14:39;6.80;;;2.83;;
70866;SDS011;58487;53.474;49.470;2022-11-04T11:20:02;6.23;;;2.90;;
70866;SDS011;58487;53.474;49.470;2022-11-04T11:22:43;9.07;;;3.28;;
70866;SDS011;58487;53.474;49.470;2022-11-04T11:25:30;7.20;;;2.90;;
70866;SDS011;58487;53.474;49.470;2022-11-04T11:28:11;7.05;;;3.00;;
70866;SDS011;58487;53.474;49.470;2022-11-04T11:33:16;6.50;;;2.37;;
70866;SDS011;58487;53.474;49.470;2022-11-04T11:35:49;6.22;;;2.65;;
70866;SDS011;58487;53.474;49.470;2022-11-04T11:38:28;5.70;;;2.42;;
70866;SDS011;58487;53.474;49.470;2022-11-04T11:41:06;7.85;;;3.33;;
70866;SDS011;58487;53.474;49.470;2022-11-04T11:43:49;7.85;;;3.30;;
70866;SDS011;58487;53.474;49.470;2022-11-04T11:46:22;9.23;;;3.33;;
70866;SDS011;58487;53.474;49.470;2022-11-04T11:48:52;7.35;;;3.10;;
70866;SDS011;58487;53.474;49.470;2022-11-04T11:51:23;7.13;;;2.70;;
70866;SDS011;58487;53.474;49.470;2022-11-04T11:56:48;6.63;;;3.05;;
70866;SDS011;58487;53.474;49.470;2022-11-04T11:59:32;9.30;;;3.50;;
70866;SDS011;58487;53.474;49.470;2022-11-04T12:05:13;8.88;;;3.33;;
70866;SDS011;58487;53.474;49.470;2022-11-04T12:10:34;7.70;;;3.38;;
70866;SDS011;58487;53.474;49.470;2022-11-04T12:18:35;7.60;;;3.38;;
70866;SDS011;58487;53.474;49.470;2022-11-04T12:21:21;8.15;;;3.60;;
70866;SDS011;58487;53.474;49.470;2022-11-04T12:26:49;8.90;;;3.70;;
70866;SDS011;58487;53.474;49.470;2022-11-04T12:35:00;12.15;;;4.20;;
70866;SDS011;58487;53.474;49.470;2022-11-04T12:40:46;9.33;;;3.80;;
70866;SDS011;58487;53.474;49.470;2022-11-04T12:43:33;9.10;;;3.50;;
70866;SDS011;58487;53.474;49.470;2022-11-04T12:51:54;8.98;;;4.18;;
70866;SDS011;58487;53.474;49.470;2022-11-04T12:54:42;11.47;;;4.00;;
70866;SDS011;58487;53.474;49.470;2022-11-04T12:57:35;9.63;;;4.13;;
70866;SDS011;58487;53.474;49.470;2022-11-04T13:00:03;10.68;;;4.32;;
70866;SDS011;58487;53.474;49.470;2022-11-04T13:08:05;8.93;;;4.33;;
70866;SDS011;58487;53.474;49.470;2022-11-04T13:11:08;9.30;;;3.83;;
70866;SDS011;58487;53.474;49.470;2022-11-04T13:13:53;9.63;;;4.40;;
70866;SDS011;58487;53.474;49.470;2022-11-04T13:16:35;7.80;;;3.53;;
70866;SDS011;58487;53.474;49.470;2022-11-04T13:19:06;8.50;;;3.90;;
70866;SDS011;58487;53.474;49.470;2022-11-04T13:21:49;9.83;;;4.17;;
70866;SDS011;58487;53.474;49.470;2022-11-04T13:24:21;10.25;;;3.97;;
70866;SDS011;58487;53.474;49.470;2022-11-04T13:26:55;9.15;;;3.85;;
70866;SDS011;58487;53.474;49.470;2022-11-04T13:29:26;8.57;;;3.95;;
70866;SDS011;58487;53.474;49.470;2022-11-04T13:37:23;8.65;;;3.70;;
70866;SDS011;58487;53.474;49.470;2022-11-04T13:40:05;9.55;;;4.22;;
70866;SDS011;58487;53.474;49.470;2022-11-04T13:42:46;8.75;;;4.20;;
70866;SDS011;58487;53.474;49.470;2022-11-04T13:45:48;7.60;;;3.50;;
70866;SDS011;58487;53.474;49.470;2022-11-04T13:48:20;9.17;;;4.13;;
70866;SDS011;58487;53.474;49.470;2022-11-04T13:51:23;9.35;;;4.10;;
70866;SDS011;58487;53.474;49.470;2022-11-04T13:56:27;9.20;;;4.18;;
70866;SDS011;58487;53.474;49.470;2022-11-04T13:59:00;8.43;;;4.00;;
70866;SDS011;58487;53.474;49.470;2022-11-04T14:01:46;12.13;;;4.23;;
70866;SDS011;58487;53.474;49.470;2022-11-04T14:14:39;9.17;;;3.90;;
70866;SDS011;58487;53.474;49.470;2022-11-04T14:25:46;10.23;;;4.30;;
70866;SDS011;58487;53.474;49.470;2022-11-04T14:27:47;10.17;;;4.37;;
70866;SDS011;58487;53.474;49.470;2022-11-04T14:33:04;10.05;;;4.53;;
70866;SDS011;58487;53.474;49.470;2022-11-04T14:35:32;9.80;;;4.38;;
70866;SDS011;58487;53.474;49.470;2022-11-04T14:38:03;12.00;;;3.97;;
70866;SDS011;58487;53.474;49.470;2022-11-04T14:40:44;9.57;;;4.07;;
70866;SDS011;58487;53.474;49.470;2022-11-04T14:43:36;10.45;;;4.55;;
70866;SDS011;58487;53.474;49.470;2022-11-04T14:46:06;9.23;;;4.28;;
70866;SDS011;58487;53.474;49.470;2022-11-04T14:48:32;9.75;;;4.68;;
70866;SDS011;58487;53.474;49.470;2022-11-04T14:50:59;9.27;;;3.97;;
70866;SDS011;58487;53.474;49.470;2022-11-04T14:53:32;11.57;;;4.60;;
70866;SDS011;58487;53.474;49.470;2022-11-04T14:56:05;10.95;;;4.40;;
70866;SDS011;58487;53.474;49.470;2022-11-04T14:58:58;9.30;;;3.95;;
70866;SDS011;58487;53.474;49.470;2022-11-04T15:01:27;9.77;;;4.25;;
70866;SDS011;58487;53.474;49.470;2022-11-04T15:03:58;11.40;;;4.68;;
70866;SDS011;58487;53.474;49.470;2022-11-04T15:06:31;9.63;;;4.80;;
70866;SDS011;58487;53.474;49.470;2022-11-04T15:08:57;12.30;;;5.03;;
70866;SDS011;58487;53.474;49.470;2022-11-04T15:11:28;15.40;;;5.15;;
70866;SDS011;58487;53.474;49.470;2022-11-04T15:14:16;12.45;;;4.93;;
70866;SDS011;58487;53.474;49.470;2022-11-04T15:16:48;10.95;;;4.97;;
70866;SDS011;58487;53.474;49.470;2022-11-04T15:19:28;11.17;;;5.07;;
70866;SDS011;58487;53.474;49.470;2022-11-04T15:21:57;9.20;;;4.07;;
70866;SDS011;58487;53.474;49.470;2022-11-04T15:24:27;10.20;;;4.50;;
70866;SDS011;58487;53.474;49.470;2022-11-04T15:26:55;9.15;;;3.72;;
70866;SDS011;58487;53.474;49.470;2022-11-04T15:29:25;12.43;;;4.22;;
70866;SDS011;58487;53.474;49.470;2022-11-04T15:31:53;11.50;;;4.60;;
70866;SDS011;58487;53.474;49.470;2022-11-04T15:34:21;9.63;;;4.32;;
70866;SDS011;58487;53.474;49.470;2022-11-04T15:36:49;10.55;;;4.38;;
70866;SDS011;58487;53.474;49.470;2022-11-04T15:39:19;10.43;;;4.20;;
70866;SDS011;58487;53.474;49.470;2022-11-04T15:41:48;9.25;;;4.28;;
70866;SDS011;58487;53.474;49.470;2022-11-04T15:44:36;10.33;;;4.57;;
70866;SDS011;58487;53.474;49.470;2022-11-04T15:47:24;8.82;;;4.25;;
70866;SDS011;58487;53.474;49.470;2022-11-04T15:50:00;8.13;;;3.95;;
70866;SDS011;58487;53.474;49.470;2022-11-04T15:52:28;9.25;;;3.90;;
70866;SDS011;58487;53.474;49.470;2022-11-04T15:54:55;11.23;;;4.75;;
70866;SDS011;58487;53.474;49.470;2022-11-04T15:57:27;11.17;;;4.37;;
70866;SDS011;58487;53.474;49.470;2022-11-04T16:00:00;8.63;;;3.63;;
70866;SDS011;58487;53.474;49.470;2022-11-04T16:02:28;11.30;;;4.10;;
70866;SDS011;58487;53.474;49.470;2022-11-04T16:13:00;9.32;;;4.60;;
70866;SDS011;58487;53.474;49.470;2022-11-04T16:15:32;9.20;;;4.30;;
70866;SDS011;58487;53.474;49.470;2022-11-04T16:18:05;11.63;;;4.70;;
70866;SDS011;58487;53.474;49.470;2022-11-04T16:20:44;11.48;;;4.57;;
70866;SDS011;58487;53.474;49.470;2022-11-04T16:23:12;10.03;;;4.60;;
70866;SDS011;58487;53.474;49.470;2022-11-04T16:25:43;10.48;;;4.70;;
70866;SDS011;58487;53.474;49.470;2022-11-04T16:28:17;11.10;;;5.35;;
70866;SDS011;58487;53.474;49.470;2022-11-04T16:30:57;10.98;;;4.88;;
70866;SDS011;58487;53.474;49.470;2022-11-04T16:33:24;12.38;;;5.35;;
70866;SDS011;58487;53.474;49.470;2022-11-04T16:35:50;13.70;;;5.00;;
70866;SDS011;58487;53.474;49.470;2022-11-04T16:38:17;10.93;;;4.90;;
70866;SDS011;58487;53.474;49.470;2022-11-04T16:40:44;10.60;;;4.72;;
70866;SDS011;58487;53.474;49.470;2022-11-04T16:43:16;11.43;;;4.80;;
70866;SDS011;58487;53.474;49.470;2022-11-04T16:45:45;12.18;;;5.00;;
70866;SDS011;58487;53.474;49.470;2022-11-04T16:48:16;14.93;;;5.43;;
70866;SDS011;58487;53.474;49.470;2022-11-04T16:50:44;18.85;;;5.70;;
70866;SDS011;58487;53.474;49.470;2022-11-04T16:53:11;11.38;;;4.93;;
70866;SDS011;58487;53.474;49.470;2022-11-04T16:58:05;12.57;;;5.30;;
70866;SDS011;58487;53.474;49.470;2022-11-04T17:00:34;14.17;;;5.90;;
70866;SDS011;58487;53.474;49.470;2022-11-04T17:03:01;11.20;;;4.82;;
70866;SDS011;58487;53.474;49.470;2022-11-04T17:05:37;13.60;;;5.45;;
70866;SDS011;58487;53.474;49.470;2022-11-04T17:08:03;13.18;;;5.60;;
70866;SDS011;58487;53.474;49.470;2022-11-04T17:10:29;16.25;;;5.82;;
70866;SDS011;58487;53.474;49.470;2022-11-04T17:13:00;13.23;;;5.30;;
70866;SDS011;58487;53.474;49.470;2022-11-04T17:15:26;12.15;;;5.25;;
70866;SDS011;58487;53.474;49.470;2022-11-04T17:17:53;11.55;;;4.88;;
70866;SDS011;58487;53.474;49.470;2022-11-04T17:20:19;11.13;;;5.03;;
70866;SDS011;58487;53.474;49.470;2022-11-04T17:22:45;11.38;;;4.88;;
70866;SDS011;58487;53.474;49.470;2022-11-04T17:25:30;14.40;;;5.70;;
70866;SDS011;58487;53.474;49.470;2022-11-04T17:27:56;14.60;;;6.60;;
70866;SDS011;58487;53.474;49.470;2022-11-04T17:30:22;10.77;;;5.07;;
70866;SDS011;58487;53.474;49.470;2022-11-04T17:32:49;18.05;;;5.50;;
70866;SDS011;58487;53.474;49.470;2022-11-04T17:35:16;11.80;;;5.18;;